Time;durP1;ratioP1;P1;durP2;ratioP2;P2;SDS_P1;SDS_P2;PMS_P1;PMS_P2;Temp;Humidity;BMP_temperature;BMP_pressure;BME280_temperature;BME280_humidity;BME280_pressure;Samples;Min_cycle;Max_cycle;Signal;HPM_P1;HPM_P2
2023/10/03 00:02:18;;;;;;;;;;;;;;;20.95;61.34;101032.84;5053687;28;19932;-46
2023/10/03 00:04:43;;;;;;;;;;;;;;;20.94;61.57;101025.72;5051444;28;19909;-45
2023/10/03 00:07:09;;;;;;;;;;;;;;;20.94;61.23;101021.19;5050562;28;19913;-46
2023/10/03 00:09:34;;;;;;;;;;;;;;;20.93;61.36;101019.50;5053892;28;19917;-45
2023/10/03 00:11:59;;;;;;;;;;;;;;;20.94;61.54;101012.22;5058240;28;19908;-45
2023/10/03 00:14:26;;;;;;;;;;;;;;;20.94;61.37;101001.41;5049237;28;19940;-45
2023/10/03 00:16:51;;;;;;;;;;;;;;;20.93;61.37;101010.53;5049633;28;19951;-45
2023/10/03 00:19:17;;;;;;;;;;;;;;;20.93;61.33;101011.38;5058128;28;19912;-46
2023/10/03 00:21:43;;;;;;;;;;;;;;;20.93;61.32;101002.44;5053009;28;19936;-46
2023/10/03 00:24:08;;;;;;;;;;;;;;;20.93;61.23;101005.13;5051049;28;20265;-44
2023/10/03 00:26:33;;;;;;;;;;;;;;;20.93;61.51;100992.47;5049203;28;19963;-47
2023/10/03 00:28:59;;;;;;;;;;;;;;;20.92;61.31;100993.50;5055390;28;19909;-45
2023/10/03 00:31:24;;;;;;;;;;;;;;;20.92;61.17;100977.28;5050604;28;19918;-47
2023/10/03 00:33:49;;;;;;;;;;;;;;;20.93;61.16;100986.22;5053190;28;19976;-45
2023/10/03 00:36:22;;;;;;;;;;;;;;;20.91;61.33;100975.59;5053040;28;19916;-45
2023/10/03 00:38:47;;;;;;;;;;;;;;;20.91;61.19;100963.94;5049548;28;19909;-45
2023/10/03 00:41:13;;;;;;;;;;;;;;;20.92;61.22;100955.66;5052388;28;20001;-47
2023/10/03 00:43:50;;;;;;;;;;;;;;;20.91;61.16;100959.38;5054608;28;19915;-47
2023/10/03 00:46:15;;;;;;;;;;;;;;;20.91;61.16;100959.38;5052430;28;19908;-45
2023/10/03 00:48:41;;;;;;;;;;;;;;;20.91;61.05;100945.03;5053695;28;19919;-46
2023/10/03 00:51:06;;;;;;;;;;;;;;;20.91;61.26;100931.50;5082945;28;19966;-46
2023/10/03 00:53:32;;;;;;;;;;;;;;;20.91;61.32;100921.53;5051849;28;19935;-47
2023/10/03 00:56:00;;;;;;;;;;;;;;;20.91;61.01;100921.53;5055184;28;19979;-45
2023/10/03 00:58:32;;;;;;;;;;;;;;;20.91;61.41;100912.59;5049491;28;19972;-47
2023/10/03 01:00:57;;;;;;;;;;;;;;;20.90;61.37;100903.66;5051788;28;19909;-45
2023/10/03 01:03:30;;;;;;;;;;;;;;;20.91;60.98;100899.09;5053807;28;19968;-45
2023/10/03 01:05:58;;;;;;;;;;;;;;;20.90;61.05;100903.66;5047004;28;19940;-45
2023/10/03 01:08:23;;;;;;;;;;;;;;;20.90;61.15;100900.13;5054808;28;19976;-47
2023/10/03 01:10:48;;;;;;;;;;;;;;;20.89;61.20;100877.63;5055038;28;19979;-45
2023/10/03 01:13:14;;;;;;;;;;;;;;;20.89;60.97;100890.31;5047312;28;20008;-44
2023/10/03 01:15:39;;;;;;;;;;;;;;;20.90;60.87;100873.09;5053645;28;19916;-48
2023/10/03 01:18:05;;;;;;;;;;;;;;;20.89;61.25;100872.22;5053708;28;19909;-47
2023/10/03 01:20:40;;;;;;;;;;;;;;;20.88;61.07;100859.75;5050909;28;19913;-45
2023/10/03 01:23:06;;;;;;;;;;;;;;;20.88;60.83;100857.03;5058000;28;19908;-46
2023/10/03 01:25:34;;;;;;;;;;;;;;;20.88;60.82;100859.75;5051285;28;19913;-44
2023/10/03 01:27:59;;;;;;;;;;;;;;;20.88;60.83;100845.38;5051311;28;19944;-45
2023/10/03 01:30:24;;;;;;;;;;;;;;;20.88;60.83;100845.38;5053429;28;19917;-47
2023/10/03 01:32:51;;;;;;;;;;;;;;;20.88;61.04;100831.88;5051743;28;19916;-47
2023/10/03 01:35:16;;;;;;;;;;;;;;;20.88;60.97;100831.88;5046833;28;19940;-45
2023/10/03 01:37:42;;;;;;;;;;;;;;;20.87;61.13;100830.22;5052121;28;19916;-45
2023/10/03 01:40:13;;;;;;;;;;;;;;;20.87;60.94;100830.22;5051184;28;19917;-45
2023/10/03 01:42:45;;;;;;;;;;;;;;;20.86;60.82;100813.16;5052288;28;19909;-47
2023/10/03 01:45:11;;;;;;;;;;;;;;;20.86;60.75;100806.91;5052588;28;19948;-46
2023/10/03 01:47:39;;;;;;;;;;;;;;;20.87;60.78;100800.47;5051313;28;19909;-46
2023/10/03 01:50:06;;;;;;;;;;;;;;;20.86;60.73;100796.94;5055444;28;19996;-46
2023/10/03 01:52:32;;;;;;;;;;;;;;;20.85;60.90;100800.66;5052477;28;19942;-45
2023/10/03 01:54:58;;;;;;;;;;;;;;;20.86;60.71;100785.28;5048715;28;19972;-46
2023/10/03 01:57:23;;;;;;;;;;;;;;;20.85;60.87;100780.88;5047552;28;19916;-46
2023/10/03 01:59:50;;;;;;;;;;;;;;;20.86;60.80;100766.38;5047581;28;19908;-46
2023/10/03 02:02:15;;;;;;;;;;;;;;;20.85;60.67;100764.69;5053483;28;19988;-45
2023/10/03 02:04:40;;;;;;;;;;;;;;;20.85;61.00;100754.69;5045317;28;19909;-46
2023/10/03 02:07:06;;;;;;;;;;;;;;;20.85;60.83;100754.69;5053197;28;19907;-46
2023/10/03 02:09:31;;;;;;;;;;;;;;;20.85;60.71;100740.34;5049834;28;19917;-45
2023/10/03 02:11:59;;;;;;;;;;;;;;;20.85;60.84;100729.53;5050804;28;19960;-46
2023/10/03 02:14:24;;;;;;;;;;;;;;;20.84;60.91;100727.88;5051327;28;19976;-46
2023/10/03 02:16:51;;;;;;;;;;;;;;;20.83;60.85;100726.22;5048592;28;19916;-47
2023/10/03 02:19:17;;;;;;;;;;;;;;;20.82;61.00;100714.56;5054927;28;19986;-46
2023/10/03 02:21:42;;;;;;;;;;;;;;;20.84;60.60;100703.56;5047653;28;19909;-44
2023/10/03 02:24:08;;;;;;;;;;;;;;;20.82;60.69;100711.84;5047860;28;20419;-44
2023/10/03 02:26:33;;;;;;;;;;;;;;;20.82;60.67;100709.16;5049873;28;19913;-45
2023/10/03 02:29:00;;;;;;;;;;;;;;;20.82;60.55;100709.16;5049283;28;19913;-45
2023/10/03 02:31:25;;;;;;;;;;;;;;;20.82;60.67;100695.66;5052704;28;19909;-45
2023/10/03 02:33:50;;;;;;;;;;;;;;;20.82;60.54;100700.22;5055529;28;20019;-44
2023/10/03 02:36:15;;;;;;;;;;;;;;;20.82;60.81;100711.84;5053558;28;19956;-44
2023/10/03 02:38:41;;;;;;;;;;;;;;;20.82;60.63;100708.31;5052700;28;19913;-45
2023/10/03 02:41:07;;;;;;;;;;;;;;;20.81;60.57;100693.94;5054716;28;19909;-44
2023/10/03 02:43:34;;;;;;;;;;;;;;;20.82;60.63;100700.22;5051576;28;20425;-46
2023/10/03 02:46:00;;;;;;;;;;;;;;;20.82;60.71;100698.34;5056030;28;19912;-45
2023/10/03 02:48:25;;;;;;;;;;;;;;;20.81;60.68;100687.72;5051793;28;19909;-44
2023/10/03 02:50:51;;;;;;;;;;;;;;;20.55;60.69;100636.84;5052272;28;19972;-45
2023/10/03 02:53:20;;;;;;;;;;;;;;;20.81;60.60;100682.31;5055505;28;19934;-47
2023/10/03 02:55:49;;;;;;;;;;;;;;;20.81;60.49;100679.59;5054780;28;19909;-45
2023/10/03 02:58:15;;;;;;;;;;;;;;;20.80;60.75;100692.28;5056103;28;19912;-45
2023/10/03 03:00:40;;;;;;;;;;;;;;;20.80;60.50;100686.03;5055258;28;19915;-45
2023/10/03 03:03:06;;;;;;;;;;;;;;;20.80;60.57;100686.03;5054912;28;19909;-44
2023/10/03 03:05:35;;;;;;;;;;;;;;;20.80;60.71;100696.84;5055595;28;19919;-45
2023/10/03 03:08:01;;;;;;;;;;;;;;;20.80;60.77;100670.66;5053271;28;19912;-44
2023/10/03 03:10:27;;;;;;;;;;;;;;;20.80;60.54;100692.28;5053427;28;20163;-44
2023/10/03 03:12:53;;;;;;;;;;;;;;;20.80;60.59;100694.16;5055939;28;19909;-46
2023/10/03 03:15:26;;;;;;;;;;;;;;;20.79;60.68;100690.59;5055207;28;19919;-46
2023/10/03 03:17:52;;;;;;;;;;;;;;;20.79;60.52;100696.00;5048772;28;19977;-46
2023/10/03 03:20:25;;;;;;;;;;;;;;;20.80;60.65;100696.84;5054661;28;19909;-45
2023/10/03 03:22:50;;;;;;;;;;;;;;;20.79;60.46;100692.47;5054044;28;20008;-44
2023/10/03 03:25:24;;;;;;;;;;;;;;;20.79;60.42;100678.97;5057454;28;19935;-45
2023/10/03 03:27:54;;;;;;;;;;;;;;;20.78;60.37;100686.25;5056805;28;19909;-45
2023/10/03 03:30:33;;;;;;;;;;;;;;;20.79;60.50;100663.59;5052045;28;19923;-45
2023/10/03 03:32:59;;;;;;;;;;;;;;;20.78;60.40;100658.38;5058059;28;19931;-44
2023/10/03 03:35:24;;;;;;;;;;;;;;;20.78;60.39;100656.50;5052348;28;19913;-45
2023/10/03 03:37:55;;;;;;;;;;;;;;;20.78;60.56;100642.16;5051836;28;19955;-47
2023/10/03 03:40:29;;;;;;;;;;;;;;;20.78;60.46;100645.72;5052812;28;19928;-47
2023/10/03 03:42:57;;;;;;;;;;;;;;;20.79;60.43;100643.84;5053404;28;19963;-45
2023/10/03 03:45:22;;;;;;;;;;;;;;;20.78;60.53;100642.16;5049479;28;19917;-47
2023/10/03 03:47:50;;;;;;;;;;;;;;;20.77;60.41;100630.50;5054597;28;19975;-45
2023/10/03 03:50:16;;;;;;;;;;;;;;;20.77;60.64;100641.31;5051958;28;19944;-47
2023/10/03 03:52:42;;;;;;;;;;;;;;;20.78;60.50;100639.47;5051136;28;19970;-44
2023/10/03 03:55:08;;;;;;;;;;;;;;;20.78;60.32;100647.56;5056266;28;19908;-48
2023/10/03 03:57:34;;;;;;;;;;;;;;;20.77;60.41;100641.31;5054129;28;19931;-44
2023/10/03 03:59:59;;;;;;;;;;;;;;;20.77;60.57;100641.31;5052946;28;19975;-45
2023/10/03 04:02:24;;;;;;;;;;;;;;;20.77;60.41;100635.91;5056130;28;20287;-46
2023/10/03 04:04:50;;;;;;;;;;;;;;;20.77;60.69;100638.59;5052490;28;19924;-45
2023/10/03 04:07:15;;;;;;;;;;;;;;;20.77;60.29;100640.47;5044697;28;19916;-44
2023/10/03 04:09:41;;;;;;;;;;;;;;;20.77;60.43;100630.50;5056353;28;19927;-49
2023/10/03 04:12:07;;;;;;;;;;;;;;;20.77;60.29;100643.16;5052803;28;19909;-46
2023/10/03 04:14:32;;;;;;;;;;;;;;;20.77;60.27;100643.16;5052134;28;19972;-47
2023/10/03 04:16:57;;;;;;;;;;;;;;;20.77;60.72;100645.88;5049383;28;19909;-47
2023/10/03 04:19:23;;;;;;;;;;;;;;;20.77;60.64;100635.91;5049440;28;19915;-46
2023/10/03 04:21:48;;;;;;;;;;;;;;;20.76;60.28;100652.31;5050601;28;19916;-46
2023/10/03 04:24:16;;;;;;;;;;;;;;;20.77;60.45;100643.16;5086086;28;19909;-46
2023/10/03 04:26:42;;;;;;;;;;;;;;;20.77;60.32;100656.69;5056660;28;20291;-48
2023/10/03 04:29:11;;;;;;;;;;;;;;;20.76;60.60;100663.94;5047647;28;19920;-45
2023/10/03 04:31:37;;;;;;;;;;;;;;;20.76;60.39;100652.31;5053568;28;19913;-47
2023/10/03 04:34:02;;;;;;;;;;;;;;;20.76;60.38;100663.94;5051856;28;19915;-44
2023/10/03 04:36:28;;;;;;;;;;;;;;;20.76;60.40;100660.41;5050524;28;19964;-48
2023/10/03 04:38:53;;;;;;;;;;;;;;;20.76;60.35;100655.84;5055823;28;19915;-46
2023/10/03 04:41:18;;;;;;;;;;;;;;;20.76;60.51;100655.00;5049979;28;19916;-47
2023/10/03 04:43:43;;;;;;;;;;;;;;;20.75;60.35;100664.97;5052808;28;19909;-45
2023/10/03 04:46:10;;;;;;;;;;;;;;;20.76;60.27;100663.13;5049394;28;19920;-45
2023/10/03 04:48:39;;;;;;;;;;;;;;;20.76;60.63;100684.72;5052735;28;19919;-45
2023/10/03 04:51:04;;;;;;;;;;;;;;;20.76;60.32;100695.53;5051748;28;19996;-46
2023/10/03 04:53:30;;;;;;;;;;;;;;;20.75;60.36;100696.56;5051774;28;19909;-45
2023/10/03 04:55:55;;;;;;;;;;;;;;;20.75;60.56;100685.75;5051370;28;19919;-45
2023/10/03 04:58:21;;;;;;;;;;;;;;;20.76;60.40;100690.13;5051439;28;19913;-45
2023/10/03 05:00:47;;;;;;;;;;;;;;;20.75;60.33;100700.09;5053068;28;19913;-46
2023/10/03 05:03:13;;;;;;;;;;;;;;;20.75;60.41;100681.19;5052786;28;19915;-47
2023/10/03 05:05:38;;;;;;;;;;;;;;;20.75;60.65;100697.41;5050458;28;19996;-45
2023/10/03 05:08:03;;;;;;;;;;;;;;;20.75;60.56;100699.28;5053508;28;20347;-46
2023/10/03 05:10:30;;;;;;;;;;;;;;;20.75;60.76;100696.56;5052666;28;20406;-45
2023/10/03 05:12:55;;;;;;;;;;;;;;;20.76;60.60;100700.94;5048657;28;19940;-45
2023/10/03 05:15:20;;;;;;;;;;;;;;;20.76;60.35;100698.25;5048088;28;19909;-45
2023/10/03 05:17:48;;;;;;;;;;;;;;;20.75;60.50;100707.38;5053394;28;19913;-44
2023/10/03 05:20:14;;;;;;;;;;;;;;;20.74;60.38;100709.25;5052345;28;19959;-46
2023/10/03 05:22:40;;;;;;;;;;;;;;;20.75;60.59;100715.47;5054579;28;19931;-45
2023/10/03 05:25:07;;;;;;;;;;;;;;;20.74;60.38;100714.66;5053653;28;19908;-49
2023/10/03 05:27:32;;;;;;;;;;;;;;;20.73;60.35;100707.56;5053628;28;20395;-46
2023/10/03 05:29:58;;;;;;;;;;;;;;;20.74;60.55;100708.41;5053277;28;19939;-46
2023/10/03 05:32:26;;;;;;;;;;;;;;;20.73;60.37;100707.56;5052693;28;19915;-45
2023/10/03 05:34:52;;;;;;;;;;;;;;;20.73;60.50;100704.88;5052424;28;19992;-46
2023/10/03 05:37:17;;;;;;;;;;;;;;;20.74;60.36;100706.53;5057331;28;19909;-46
2023/10/03 05:39:42;;;;;;;;;;;;;;;20.74;60.44;100713.81;5051556;28;19909;-45
2023/10/03 05:42:08;;;;;;;;;;;;;;;20.74;60.34;100724.63;5054028;28;19909;-44
2023/10/03 05:44:37;;;;;;;;;;;;;;;20.74;60.63;100724.63;5056518;28;19963;-45
2023/10/03 05:47:03;;;;;;;;;;;;;;;20.74;60.67;100733.56;5054085;28;19921;-46
2023/10/03 05:49:28;;;;;;;;;;;;;;;20.75;60.43;100734.41;5047274;28;19913;-46
2023/10/03 05:51:55;;;;;;;;;;;;;;;20.73;60.71;100750.81;5054322;28;20032;-45
2023/10/03 05:54:27;;;;;;;;;;;;;;;20.74;60.46;100757.03;5081975;28;19944;-46
2023/10/03 05:56:52;;;;;;;;;;;;;;;20.75;60.48;100743.34;5050347;28;19916;-45
2023/10/03 05:59:18;;;;;;;;;;;;;;;20.74;60.63;100752.47;5049792;28;19909;-45
2023/10/03 06:01:43;;;;;;;;;;;;;;;20.74;60.50;100762.44;5049805;28;19959;-45
2023/10/03 06:04:09;;;;;;;;;;;;;;;20.72;60.75;100758.03;5056834;28;19909;-47
2023/10/03 06:06:34;;;;;;;;;;;;;;;20.74;60.56;100749.78;5047541;28;19955;-46
2023/10/03 06:09:00;;;;;;;;;;;;;;;20.72;60.67;100749.94;5051439;28;19924;-46
2023/10/03 06:11:25;;;;;;;;;;;;;;;20.74;60.54;100762.44;5057465;28;19917;-44
2023/10/03 06:13:50;;;;;;;;;;;;;;;20.73;60.46;100764.31;5055394;28;19909;-45
2023/10/03 06:16:16;;;;;;;;;;;;;;;20.73;60.46;100777.81;5052356;28;19960;-46
2023/10/03 06:18:41;;;;;;;;;;;;;;;20.74;60.35;100781.34;5056842;28;19976;-46
2023/10/03 06:21:10;;;;;;;;;;;;;;;20.72;60.71;100793.16;5060506;28;20000;-45
2023/10/03 06:23:37;;;;;;;;;;;;;;;20.72;60.57;100776.13;5051929;28;19992;-46
2023/10/03 06:26:02;;;;;;;;;;;;;;;20.72;60.51;100771.56;5056862;28;19917;-46
2023/10/03 06:28:28;;;;;;;;;;;;;;;20.74;60.54;100775.97;5056985;28;20279;-46
2023/10/03 06:30:54;;;;;;;;;;;;;;;20.74;60.74;100778.66;5047707;28;19913;-45
2023/10/03 06:33:19;;;;;;;;;;;;;;;20.72;60.60;100795.88;5048918;28;20307;-46
2023/10/03 06:35:45;;;;;;;;;;;;;;;20.72;60.40;100790.47;5052411;28;19976;-44
2023/10/03 06:38:10;;;;;;;;;;;;;;;20.72;60.61;100776.13;5086720;28;19909;-46
2023/10/03 06:40:36;;;;;;;;;;;;;;;20.73;60.49;100777.81;5051264;28;19909;-46
2023/10/03 06:43:01;;;;;;;;;;;;;;;20.72;60.44;100786.94;5054549;28;20012;-44
2023/10/03 06:45:27;;;;;;;;;;;;;;;20.72;60.31;100801.28;5053134;28;19916;-44
2023/10/03 06:47:52;;;;;;;;;;;;;;;20.72;60.25;100797.72;5057801;28;19909;-47
2023/10/03 06:50:17;;;;;;;;;;;;;;;20.71;60.47;100794.19;5048461;28;19975;-47
2023/10/03 06:52:43;;;;;;;;;;;;;;;20.72;60.31;100793.16;5054869;28;19913;-45
2023/10/03 06:55:11;;;;;;;;;;;;;;;20.72;60.28;100795.03;5051438;28;19913;-48
2023/10/03 06:57:37;;;;;;;;;;;;;;;20.71;60.61;100805.00;5049063;28;19909;-44
2023/10/03 07:00:02;;;;;;;;;;;;;;;20.72;60.19;100808.53;5053202;28;19954;-44
2023/10/03 07:02:28;;;;;;;;;;;;;;;20.72;60.25;100811.25;5053579;28;19909;-47
2023/10/03 07:04:53;;;;;;;;;;;;;;;20.72;60.33;100812.06;5055252;28;19908;-44
2023/10/03 07:07:18;;;;;;;;;;;;;;;20.72;60.17;100820.19;5055824;28;19915;-44
2023/10/03 07:09:43;;;;;;;;;;;;;;;20.71;60.22;100829.31;5055023;28;20283;-45
2023/10/03 07:12:08;;;;;;;;;;;;;;;20.72;60.61;100824.75;5056018;28;19913;-45
2023/10/03 07:14:35;;;;;;;;;;;;;;;20.72;60.17;100828.28;5054406;28;19920;-44
2023/10/03 07:17:00;;;;;;;;;;;;;;;20.72;60.17;100838.25;5050519;28;19909;-48
2023/10/03 07:19:26;;;;;;;;;;;;;;;20.72;60.45;100822.06;5051013;28;19913;-45
2023/10/03 07:21:52;;;;;;;;;;;;;;;20.72;60.51;100822.06;5052780;28;19955;-46
2023/10/03 07:24:18;;;;;;;;;;;;;;;20.71;60.35;100829.31;5051988;28;19913;-45
2023/10/03 07:26:43;;;;;;;;;;;;;;;20.71;60.50;100829.31;5055904;28;19979;-45
2023/10/03 07:29:08;;;;;;;;;;;;;;;20.71;60.40;100829.31;5053906;28;19962;-44
2023/10/03 07:31:33;;;;;;;;;;;;;;;20.72;60.35;100839.09;5051208;28;20201;-45
2023/10/03 07:33:59;;;;;;;;;;;;;;;20.72;60.31;100849.06;5056104;28;19913;-44
2023/10/03 07:36:25;;;;;;;;;;;;;;;20.72;60.43;100862.56;5052103;28;19912;-45
2023/10/03 07:38:50;;;;;;;;;;;;;;;20.72;60.19;100867.97;5049310;28;19956;-46
2023/10/03 07:41:17;;;;;;;;;;;;;;;20.71;60.13;100871.72;5056573;28;19909;-45
2023/10/03 07:43:48;;;;;;;;;;;;;;;20.71;60.22;100864.44;5056429;28;19917;-44
2023/10/03 07:46:20;;;;;;;;;;;;;;;20.71;60.30;100861.75;5055465;28;19998;-44
2023/10/03 07:48:45;;;;;;;;;;;;;;;20.71;60.18;100869.00;5055532;28;19909;-45
2023/10/03 07:51:17;;;;;;;;;;;;;;;20.70;60.17;100865.47;5052914;28;19920;-45
2023/10/03 07:53:42;;;;;;;;;;;;;;;20.71;60.32;100858.19;5056699;28;20421;-44
2023/10/03 07:56:29;;;;;;;;;;;;;;;20.70;60.12;100868.19;5054944;28;19980;-47
2023/10/03 07:58:55;;;;;;;;;;;;;;;20.71;60.39;100877.13;5050578;28;19912;-45
2023/10/03 08:01:21;;;;;;;;;;;;;;;20.71;60.13;100871.72;5051835;28;20039;-45
2023/10/03 08:03:46;;;;;;;;;;;;;;;20.70;60.22;100876.28;5053425;28;19916;-47
2023/10/03 08:06:14;;;;;;;;;;;;;;;20.71;60.29;100882.53;5056573;28;19920;-45
2023/10/03 08:08:40;;;;;;;;;;;;;;;20.70;60.30;100889.78;5057677;28;19919;-46
2023/10/03 08:11:06;;;;;;;;;;;;;;;20.70;60.43;100897.88;5052516;28;19984;-45
2023/10/03 08:13:38;;;;;;;;;;;;;;;20.71;60.34;100902.28;5053957;28;19913;-46
2023/10/03 08:16:04;;;;;;;;;;;;;;;20.70;60.27;100924.06;5049856;28;19963;-46
2023/10/03 08:18:29;;;;;;;;;;;;;;;20.70;60.16;100927.63;5053014;28;19959;-48
2023/10/03 08:20:54;;;;;;;;;;;;;;;20.69;60.36;100925.94;5054175;28;19908;-45
2023/10/03 08:23:20;;;;;;;;;;;;;;;20.71;60.11;100941.97;5058238;28;19931;-45
2023/10/03 08:25:45;;;;;;;;;;;;;;;20.70;60.13;100953.78;5051597;28;19913;-45
2023/10/03 08:28:10;;;;;;;;;;;;;;;20.69;60.06;100950.25;5055191;28;20360;-45
2023/10/03 08:30:35;;;;;;;;;;;;;;;20.70;60.18;100959.19;5051537;28;19967;-45
2023/10/03 08:33:04;;;;;;;;;;;;;;;20.69;60.50;100952.97;5047873;28;20404;-45
2023/10/03 08:35:37;;;;;;;;;;;;;;;20.69;60.23;100944.84;5050364;28;20394;-45
2023/10/03 08:38:11;;;;;;;;;;;;;;;20.69;60.38;100946.72;5048030;28;19912;-48
2023/10/03 08:40:38;;;;;;;;;;;;;;;20.70;60.26;100964.59;5048040;28;19916;-47
2023/10/03 08:43:04;;;;;;;;;;;;;;;20.69;60.37;100989.94;5049250;28;19909;-47
2023/10/03 08:45:30;;;;;;;;;;;;;;;20.70;60.41;101016.78;5046135;28;20000;-46
2023/10/03 08:47:55;;;;;;;;;;;;;;;20.69;60.36;101017.81;5051230;28;19909;-45
2023/10/03 08:50:33;;;;;;;;;;;;;;;20.69;60.50;101023.19;5048878;28;19980;-45
2023/10/03 08:53:12;;;;;;;;;;;;;;;20.70;60.35;101042.94;5050597;28;19939;-45
2023/10/03 08:55:38;;;;;;;;;;;;;;;20.69;60.63;101047.53;5052075;28;20004;-45
2023/10/03 08:58:04;;;;;;;;;;;;;;;20.69;60.58;101050.22;5050248;28;19915;-46
2023/10/03 09:00:40;;;;;;;;;;;;;;;20.69;60.70;101050.22;5068011;28;19998;-45
2023/10/03 09:03:09;;;;;;;;;;;;;;;20.68;60.90;101056.63;5059889;28;20291;-44
2023/10/03 09:05:34;;;;;;;;;;;;;;;20.69;60.72;101073.69;5082390;28;20454;-48
2023/10/03 09:07:59;;;;;;;;;;;;;;;20.69;60.76;101106.97;5086895;28;19915;-45
2023/10/03 09:10:24;;;;;;;;;;;;;;;20.69;60.69;101108.81;5050528;28;20407;-47
2023/10/03 09:12:50;;;;;;;;;;;;;;;20.69;60.91;101115.06;5084531;28;19984;-48
2023/10/03 09:15:17;;;;;;;;;;;;;;;20.68;60.84;101118.75;5048690;28;19913;-45
2023/10/03 09:17:42;;;;;;;;;;;;;;;20.69;60.75;101127.75;5052399;28;19913;-46
2023/10/03 09:20:08;;;;;;;;;;;;;;;20.68;60.75;101116.06;5048716;28;20019;-45
2023/10/03 09:22:36;;;;;;;;;;;;;;;20.69;60.53;101125.03;5054426;28;20366;-47
2023/10/03 09:25:01;;;;;;;;;;;;;;;20.69;60.38;101127.75;5050396;28;19917;-44
2023/10/03 09:27:30;;;;;;;;;;;;;;;20.68;60.75;101121.47;5051685;28;19919;-45
2023/10/03 09:29:58;;;;;;;;;;;;;;;20.69;60.51;101122.34;5048215;28;19913;-46
2023/10/03 09:32:24;;;;;;;;;;;;;;;20.69;60.30;101133.13;5052477;28;19947;-45
2023/10/03 09:35:09;;;;;;;;;;;;;;;20.70;60.40;101137.53;5053407;28;19916;-45
2023/10/03 09:37:34;;;;;;;;;;;;;;;20.69;60.42;101146.66;5053482;28;19901;-44
2023/10/03 09:40:01;;;;;;;;;;;;;;;20.69;60.36;101149.34;5051469;28;19924;-45
2023/10/03 09:42:27;;;;;;;;;;;;;;;20.69;60.21;101160.16;5046472;28;19909;-45
2023/10/03 09:44:57;;;;;;;;;;;;;;;20.69;60.57;101170.97;5056199;28;19930;-47
2023/10/03 09:47:30;;;;;;;;;;;;;;;20.68;60.24;101197.13;5054046;28;19917;-44
2023/10/03 09:50:03;;;;;;;;;;;;;;;20.69;60.39;101187.19;5051338;28;19935;-47
2023/10/03 09:52:30;;;;;;;;;;;;;;;20.69;60.27;101198.81;5057930;28;19908;-45
2023/10/03 09:54:59;;;;;;;;;;;;;;;20.69;60.62;101189.88;5053821;28;19909;-45
2023/10/03 09:57:24;;;;;;;;;;;;;;;20.69;60.44;101187.19;5061186;28;19916;-46
2023/10/03 09:59:50;;;;;;;;;;;;;;;20.69;60.27;101208.78;5056606;28;19913;-46
2023/10/03 10:02:16;;;;;;;;;;;;;;;20.68;60.60;101213.31;5052670;28;19909;-44
2023/10/03 10:04:42;;;;;;;;;;;;;;;20.68;60.60;101205.22;5058509;28;19915;-46
2023/10/03 10:07:16;;;;;;;;;;;;;;;20.69;60.54;101206.09;5088687;28;19909;-45
2023/10/03 10:09:46;;;;;;;;;;;;;;;20.70;60.20;101202.38;5088427;28;19924;-45
2023/10/03 10:12:18;;;;;;;;;;;;;;;20.69;60.43;101215.03;5056428;28;19964;-45
2023/10/03 10:15:00;;;;;;;;;;;;;;;20.69;60.33;101247.47;5056807;28;20368;-45
2023/10/03 10:17:39;;;;;;;;;;;;;;;20.69;60.04;101233.94;5058313;28;19916;-46
2023/10/03 10:20:12;;;;;;;;;;;;;;;20.70;60.29;101243.72;5058310;28;19916;-44
2023/10/03 10:22:56;;;;;;;;;;;;;;;20.70;60.32;101248.31;5053163;28;19959;-45
2023/10/03 10:25:31;;;;;;;;;;;;;;;20.70;59.94;101253.72;5058776;28;19909;-45
2023/10/03 10:28:06;;;;;;;;;;;;;;;20.70;59.97;101259.94;5054437;28;19909;-46
2023/10/03 10:30:34;;;;;;;;;;;;;;;20.69;59.90;101263.66;5052872;28;20390;-46
2023/10/03 10:33:18;;;;;;;;;;;;;;;20.70;60.00;101273.47;5055276;28;19927;-46
2023/10/03 10:36:03;;;;;;;;;;;;;;;20.70;60.10;101275.31;5054607;28;19916;-46
2023/10/03 10:38:31;;;;;;;;;;;;;;;20.70;59.85;101278.88;5061405;28;19982;-46
2023/10/03 10:41:11;;;;;;;;;;;;;;;20.70;60.08;101269.91;5060382;28;19908;-48
2023/10/03 10:43:36;;;;;;;;;;;;;;;20.70;59.89;101270.75;5050677;28;19920;-45
2023/10/03 10:46:20;;;;;;;;;;;;;;;20.70;59.96;101275.31;5087454;28;20288;-48
2023/10/03 10:48:46;;;;;;;;;;;;;;;20.71;59.58;101285.94;5054096;28;19999;-45
2023/10/03 10:51:12;;;;;;;;;;;;;;;20.70;59.51;101291.53;5053062;28;19908;-45
2023/10/03 10:53:43;;;;;;;;;;;;;;;20.71;59.41;101301.31;5051076;28;19920;-47
2023/10/03 10:56:09;;;;;;;;;;;;;;;20.71;59.67;101295.91;5055122;28;19962;-45
2023/10/03 10:59:01;;;;;;;;;;;;;;;20.69;59.23;101290.69;5055656;28;19917;-45
2023/10/03 11:01:26;;;;;;;;;;;;;;;20.70;59.28;101289.66;5055537;28;20003;-46
2023/10/03 11:03:52;;;;;;;;;;;;;;;20.69;59.49;101282.59;5056485;28;20297;-46
2023/10/03 11:06:17;;;;;;;;;;;;;;;20.70;59.13;101284.25;5053882;28;19916;-47
2023/10/03 11:08:44;;;;;;;;;;;;;;;20.71;59.44;101293.22;5053506;28;19913;-45
2023/10/03 11:11:09;;;;;;;;;;;;;;;20.71;59.26;101299.47;5050424;28;19950;-47
2023/10/03 11:13:43;;;;;;;;;;;;;;;20.71;59.06;101302.16;5086134;28;19948;-49
2023/10/03 11:16:08;;;;;;;;;;;;;;;20.71;59.15;101312.13;5086392;28;20340;-47
2023/10/03 11:18:35;;;;;;;;;;;;;;;20.71;58.98;101317.53;5051054;28;19916;-47
2023/10/03 11:21:04;;;;;;;;;;;;;;;20.70;59.18;101322.09;5055051;28;19913;-46
2023/10/03 11:23:29;;;;;;;;;;;;;;;20.70;58.80;101338.31;5051620;28;19909;-50
2023/10/03 11:25:57;;;;;;;;;;;;;;;20.71;59.17;101333.75;5059455;28;19931;-45
2023/10/03 11:28:29;;;;;;;;;;;;;;;20.70;58.69;101337.47;5055064;28;19909;-47
2023/10/03 11:31:04;;;;;;;;;;;;;;;20.69;58.64;101338.50;5053501;28;19913;-47
2023/10/03 11:33:47;;;;;;;;;;;;;;;20.69;58.51;101341.19;5055068;28;20719;-47
2023/10/03 11:36:13;;;;;;;;;;;;;;;20.69;58.43;101347.44;5054475;28;19918;-45
2023/10/03 11:38:44;;;;;;;;;;;;;;;20.68;58.57;101345.72;5048125;28;20375;-48
2023/10/03 11:41:09;;;;;;;;;;;;;;;20.68;58.43;101351.13;5053134;28;19912;-47
2023/10/03 11:43:42;;;;;;;;;;;;;;;20.68;58.42;101367.34;5054706;28;19930;-47
2023/10/03 11:46:10;;;;;;;;;;;;;;;20.67;58.61;101360.25;5054399;28;20059;-45
2023/10/03 11:48:36;;;;;;;;;;;;;;;20.68;58.56;101366.50;5055024;28;19909;-47
2023/10/03 11:51:01;;;;;;;;;;;;;;;20.67;58.10;101373.75;5051521;28;19916;-49
2023/10/03 11:53:26;;;;;;;;;;;;;;;20.66;58.11;101377.47;5053814;28;19916;-44
2023/10/03 11:55:52;;;;;;;;;;;;;;;20.66;58.24;101393.69;5054259;28;19917;-46
2023/10/03 11:58:18;;;;;;;;;;;;;;;20.65;58.14;101386.63;5053539;28;19916;-45
2023/10/03 12:00:44;;;;;;;;;;;;;;;20.66;58.09;101392.84;5054703;28;19908;-44
2023/10/03 12:03:09;;;;;;;;;;;;;;;20.65;58.46;101392.00;5056164;28;19932;-47
2023/10/03 12:05:36;;;;;;;;;;;;;;;20.65;58.13;101402.81;5055686;28;19912;-46
2023/10/03 12:08:03;;;;;;;;;;;;;;;20.66;58.29;101398.25;5052324;28;20026;-49
2023/10/03 12:10:31;;;;;;;;;;;;;;;20.66;58.11;101392.84;5055379;28;19917;-48
2023/10/03 12:12:57;;;;;;;;;;;;;;;20.65;57.99;101404.69;5055690;28;19909;-44
2023/10/03 12:15:23;;;;;;;;;;;;;;;20.64;57.87;101409.22;5056573;28;19948;-48
2023/10/03 12:17:48;;;;;;;;;;;;;;;20.64;58.12;101411.91;5053276;28;20356;-45
2023/10/03 12:20:14;;;;;;;;;;;;;;;20.63;58.01;101423.75;5046324;28;19932;-46
2023/10/03 12:22:44;;;;;;;;;;;;;;;20.65;58.01;101429.00;5054222;28;19911;-50
2023/10/03 12:25:14;;;;;;;;;;;;;;;20.63;57.65;101450.75;5053008;28;20287;-47
2023/10/03 12:27:41;;;;;;;;;;;;;;;20.64;57.61;101459.72;5050307;28;19912;-46
2023/10/03 12:30:10;;;;;;;;;;;;;;;20.65;57.81;101477.63;5052104;28;20000;-46
2023/10/03 12:32:36;;;;;;;;;;;;;;;20.64;57.64;101484.03;5050356;28;19931;-47
2023/10/03 12:35:01;;;;;;;;;;;;;;;20.63;57.63;101496.69;5050263;28;19949;-47
2023/10/03 12:37:26;;;;;;;;;;;;;;;20.64;57.80;101508.34;5054560;28;19915;-49